Time;durP1;ratioP1;P1;durP2;ratioP2;P2;SDS_P1;SDS_P2;PMS_P1;PMS_P2;Temp;Humidity;BMP_temperature;BMP_pressure;BME280_temperature;BME280_humidity;BME280_pressure;Samples;Min_cycle;Max_cycle;Signal;HPM_P1;HPM_P2
2021/12/07 05:02:01;;;;;;;33.63;14.80;;;1.30;99.90;;;;;;5214480;23;20237;-70
2021/12/07 05:04:31;;;;;;;32.00;18.77;;;1.20;99.90;;;;;;4954028;28;20284;-71
2021/12/07 05:07:05;;;;;;;24.48;14.13;;;1.30;99.90;;;;;;4973791;28;20697;-69
2021/12/07 05:09:52;;;;;;;15.93;9.40;;;1.30;99.90;;;;;;4972804;28;20641;-71
2021/12/07 05:12:27;;;;;;;34.10;17.73;;;1.30;99.90;;;;;;4953896;29;20261;-70
2021/12/07 05:15:00;;;;;;;22.42;13.18;;;1.30;99.90;;;;;;4949851;29;20615;-70
2021/12/07 05:17:55;;;;;;;34.53;18.60;;;1.30;99.90;;;;;;4940635;29;20210;-70
2021/12/07 05:39:34;;;;;;;26.67;14.88;;;1.30;99.90;;;;;;4947495;29;20519;-69
2021/12/07 05:42:00;;;;;;;26.95;16.52;;;1.30;99.90;;;;;;4953012;29;20229;-68
2021/12/07 05:44:28;;;;;;;24.90;14.00;;;1.30;99.90;;;;;;4953156;29;20276;-69
2021/12/07 05:46:54;;;;;;;38.35;17.60;;;1.30;99.90;;;;;;4952718;29;20205;-69
2021/12/07 05:49:22;;;;;;;29.27;17.02;;;1.30;99.90;;;;;;4953166;29;20205;-69
2021/12/07 05:51:49;;;;;;;36.58;18.55;;;1.30;99.90;;;;;;4952602;29;20268;-69
2021/12/07 05:54:16;;;;;;;30.35;17.52;;;1.30;99.90;;;;;;4953127;29;20212;-68
2021/12/07 05:56:43;;;;;;;31.17;16.58;;;1.30;99.90;;;;;;4952954;29;20638;-68
2021/12/07 05:59:10;;;;;;;33.38;18.10;;;1.30;99.90;;;;;;4947889;29;20206;-70
2021/12/07 06:01:38;;;;;;;32.83;16.38;;;1.30;99.90;;;;;;4941668;28;20617;-68
2021/12/07 06:04:07;;;;;;;36.30;17.38;;;1.40;99.90;;;;;;4938435;29;20208;-70
2021/12/07 06:06:35;;;;;;;23.00;12.55;;;1.30;99.90;;;;;;4944990;29;20633;-70
2021/12/07 06:09:02;;;;;;;26.55;14.80;;;1.40;99.90;;;;;;4934136;29;20210;-69
2021/12/07 06:11:29;;;;;;;29.85;15.00;;;1.30;99.90;;;;;;4944804;29;20233;-69
2021/12/07 06:13:56;;;;;;;28.63;16.67;;;1.40;99.90;;;;;;4937553;29;20241;-70
2021/12/07 06:16:24;;;;;;;30.10;15.18;;;1.40;99.90;;;;;;4934206;29;20221;-70
2021/12/07 06:18:51;;;;;;;22.98;14.15;;;1.40;99.90;;;;;;4933820;29;20673;-69
2021/12/07 06:21:18;;;;;;;25.27;14.05;;;1.40;99.90;;;;;;4937778;29;20277;-69
2021/12/07 06:23:46;;;;;;;25.63;12.93;;;1.40;99.90;;;;;;4939820;29;20193;-70
2021/12/07 06:26:12;;;;;;;31.15;14.88;;;1.30;99.90;;;;;;4953484;29;20216;-69
2021/12/07 06:28:39;;;;;;;20.70;12.50;;;1.30;99.90;;;;;;4950976;29;20271;-69
2021/12/07 06:31:06;;;;;;;24.00;14.10;;;1.30;99.90;;;;;;4951123;29;20863;-69
2021/12/07 06:33:33;;;;;;;31.27;15.63;;;1.30;99.90;;;;;;4952633;29;20223;-69
2021/12/07 06:36:03;;;;;;;27.30;14.57;;;1.30;99.90;;;;;;4935220;29;20237;-70
2021/12/07 06:38:33;;;;;;;28.42;14.93;;;1.40;99.90;;;;;;4952329;29;20240;-68
2021/12/07 06:41:03;;;;;;;25.15;13.95;;;1.40;99.90;;;;;;4952300;29;20228;-69
2021/12/07 06:43:30;;;;;;;27.27;15.38;;;1.30;99.90;;;;;;4948414;29;20887;-68
2021/12/07 06:45:57;;;;;;;20.45;11.25;;;1.30;99.90;;;;;;4933018;29;20210;-69
2021/12/07 06:48:24;;;;;;;30.30;15.50;;;1.30;99.90;;;;;;4944877;29;20257;-68
2021/12/07 06:50:51;;;;;;;32.88;17.38;;;1.30;99.90;;;;;;4948142;29;20221;-71
2021/12/07 06:53:17;;;;;;;29.92;16.40;;;1.40;99.90;;;;;;4948118;29;20202;-70
2021/12/07 06:55:44;;;;;;;28.83;13.85;;;1.40;99.90;;;;;;4949734;29;20245;-71
2021/12/07 06:58:13;;;;;;;31.75;16.13;;;1.40;99.90;;;;;;4950690;29;20221;-70
2021/12/07 07:00:40;;;;;;;32.10;17.17;;;1.40;99.90;;;;;;4931839;29;20238;-70
2021/12/07 07:03:07;;;;;;;36.22;15.35;;;1.40;99.90;;;;;;4936934;29;20205;-70
2021/12/07 07:05:34;;;;;;;23.02;14.07;;;1.40;99.90;;;;;;4952143;29;20229;-70
2021/12/07 07:08:02;;;;;;;29.58;18.00;;;1.40;99.90;;;;;;4952155;29;20205;-69
2021/12/07 07:10:29;;;;;;;29.48;16.67;;;1.40;99.90;;;;;;4949447;29;20823;-69
2021/12/07 07:12:56;;;;;;;34.72;15.95;;;1.40;99.90;;;;;;4951592;29;20209;-71
2021/12/07 07:15:24;;;;;;;28.70;15.75;;;1.40;99.90;;;;;;4946738;29;20201;-68
2021/12/07 07:17:51;;;;;;;31.85;17.48;;;1.40;99.90;;;;;;4934041;29;20224;-70
2021/12/07 07:20:18;;;;;;;27.50;16.55;;;1.40;99.90;;;;;;4946970;29;20208;-70
2021/12/07 07:22:46;;;;;;;32.58;15.93;;;1.40;99.90;;;;;;4948873;29;20265;-70
2021/12/07 07:25:13;;;;;;;24.98;15.20;;;1.40;99.90;;;;;;4935514;29;20214;-70
2021/12/07 07:27:40;;;;;;;14.00;9.55;;;1.40;99.90;;;;;;4948859;29;20198;-70
2021/12/07 07:30:09;;;;;;;24.67;15.75;;;1.40;99.90;;;;;;4950679;29;20308;-70
2021/12/07 07:32:37;;;;;;;27.77;14.07;;;1.40;99.90;;;;;;4951834;29;20217;-70
2021/12/07 07:35:06;;;;;;;19.60;13.63;;;1.40;99.90;;;;;;4937002;29;20253;-70
2021/12/07 07:37:32;;;;;;;35.22;17.52;;;1.40;99.90;;;;;;4944222;29;20225;-71
2021/12/07 07:39:59;;;;;;;22.08;12.50;;;1.40;99.90;;;;;;4948658;29;20228;-70
2021/12/07 07:42:26;;;;;;;32.67;16.08;;;1.40;99.90;;;;;;4950878;28;20232;-70
2021/12/07 07:44:53;;;;;;;19.52;10.30;;;1.40;99.90;;;;;;4949683;29;20542;-70
2021/12/07 07:47:19;;;;;;;32.13;17.00;;;1.50;99.90;;;;;;4950956;29;20207;-71
2021/12/07 07:49:47;;;;;;;26.33;16.83;;;1.50;99.90;;;;;;4949471;29;20201;-71
2021/12/07 07:52:15;;;;;;;32.70;18.50;;;1.40;99.90;;;;;;4949304;29;20432;-71
2021/12/07 07:54:41;;;;;;;27.05;15.18;;;1.50;99.90;;;;;;4951037;29;20739;-70
2021/12/07 07:57:08;;;;;;;29.60;17.02;;;1.50;99.90;;;;;;4941555;29;20637;-70
2021/12/07 07:59:36;;;;;;;23.27;12.48;;;1.50;99.90;;;;;;4935570;29;20212;-70
2021/12/07 08:02:03;;;;;;;20.60;13.30;;;1.50;99.90;;;;;;4950652;28;20268;-70
2021/12/07 08:04:30;;;;;;;32.53;17.83;;;1.50;99.90;;;;;;4950469;29;20212;-70
2021/12/07 08:06:58;;;;;;;30.73;16.88;;;1.50;99.90;;;;;;4951334;29;20268;-69
2021/12/07 08:09:24;;;;;;;28.52;17.25;;;1.50;99.90;;;;;;4951333;29;20320;-70
2021/12/07 08:11:52;;;;;;;28.60;13.85;;;1.50;99.90;;;;;;4938716;29;20223;-69
2021/12/07 08:14:19;;;;;;;26.20;13.98;;;1.50;99.90;;;;;;4935673;29;20284;-70
2021/12/07 08:16:47;;;;;;;33.22;17.73;;;1.60;99.90;;;;;;4946152;29;20225;-70
2021/12/07 08:19:14;;;;;;;36.42;17.83;;;1.60;99.90;;;;;;4950236;29;20205;-69
2021/12/07 08:21:41;;;;;;;15.23;10.23;;;1.60;99.90;;;;;;4950979;29;20225;-70
2021/12/07 08:24:09;;;;;;;27.88;15.45;;;1.60;99.90;;;;;;4949347;29;20290;-70
2021/12/07 08:26:36;;;;;;;32.75;16.48;;;1.60;99.90;;;;;;4951794;29;20212;-71
2021/12/07 08:29:03;;;;;;;32.92;15.93;;;1.60;99.90;;;;;;4945769;29;20227;-71
2021/12/07 08:31:30;;;;;;;31.08;16.10;;;1.60;99.90;;;;;;4951677;29;20236;-71
2021/12/07 08:33:57;;;;;;;35.05;19.38;;;1.60;99.90;;;;;;4941351;29;20212;-71
2021/12/07 08:36:23;;;;;;;32.63;17.70;;;1.60;99.90;;;;;;4944540;29;20240;-69
2021/12/07 08:38:50;;;;;;;31.45;18.98;;;1.60;99.90;;;;;;4948489;29;20199;-70
2021/12/07 08:41:18;;;;;;;37.00;20.42;;;1.60;99.90;;;;;;4941627;29;20244;-70
2021/12/07 08:43:45;;;;;;;20.77;13.45;;;1.70;99.90;;;;;;4952404;29;20205;-70
2021/12/07 08:46:14;;;;;;;28.90;13.75;;;1.70;99.90;;;;;;4951988;29;20232;-70
2021/12/07 08:48:42;;;;;;;35.95;19.60;;;1.60;99.90;;;;;;4946669;29;20206;-70
2021/12/07 08:51:11;;;;;;;36.00;18.60;;;1.70;99.90;;;;;;4938871;29;20682;-70
2021/12/07 08:53:45;;;;;;;22.90;12.25;;;1.70;99.90;;;;;;4952389;29;20217;-70
2021/12/07 09:01:42;;;;;;;33.05;18.92;;;1.70;99.90;;;;;;4951952;29;20662;-69
2021/12/07 09:04:13;;;;;;;21.88;11.27;;;1.70;99.90;;;;;;4937740;29;20688;-69
2021/12/07 09:06:39;;;;;;;23.67;15.30;;;1.70;99.90;;;;;;4933186;29;20231;-71
2021/12/07 09:09:06;;;;;;;26.90;16.50;;;1.70;99.90;;;;;;4932824;29;20221;-69
2021/12/07 09:11:33;;;;;;;35.53;17.77;;;1.70;99.90;;;;;;4934513;29;20604;-68
2021/12/07 09:14:01;;;;;;;33.15;19.75;;;1.70;99.90;;;;;;4935245;29;20269;-69
2021/12/07 09:16:28;;;;;;;38.03;20.23;;;1.80;99.90;;;;;;4936124;29;20256;-70
2021/12/07 09:18:55;;;;;;;36.53;21.15;;;1.80;99.90;;;;;;4948371;29;20205;-69
2021/12/07 09:21:22;;;;;;;19.30;14.57;;;1.80;99.90;;;;;;4954831;29;20225;-70
2021/12/07 09:23:49;;;;;;;21.83;14.98;;;1.80;99.90;;;;;;4954967;29;20551;-71
2021/12/07 09:26:16;;;;;;;34.33;19.33;;;1.80;99.90;;;;;;4955157;29;20205;-70
2021/12/07 09:28:44;;;;;;;37.35;19.50;;;1.80;99.90;;;;;;4954478;29;20647;-69
2021/12/07 09:31:13;;;;;;;23.63;12.88;;;1.90;99.90;;;;;;4954075;29;20237;-70
2021/12/07 09:33:42;;;;;;;20.73;11.95;;;1.90;99.90;;;;;;4935894;29;20247;-71
2021/12/07 09:36:10;;;;;;;29.60;18.45;;;1.90;99.90;;;;;;4935514;29;20210;-69
2021/12/07 09:38:38;;;;;;;25.65;14.38;;;1.90;99.90;;;;;;4935710;29;20317;-70
2021/12/07 09:41:07;;;;;;;35.08;17.95;;;1.90;99.90;;;;;;4935061;29;20236;-70
2021/12/07 09:43:34;;;;;;;27.05;14.45;;;1.90;99.90;;;;;;4934937;29;20221;-70
2021/12/07 09:46:01;;;;;;;35.33;17.92;;;1.90;99.90;;;;;;4937638;29;20860;-70
2021/12/07 09:48:29;;;;;;;35.92;18.50;;;2.00;99.90;;;;;;4954785;29;20328;-70
2021/12/07 09:50:56;;;;;;;33.15;17.48;;;2.00;99.90;;;;;;4952681;29;20701;-70
2021/12/07 09:53:25;;;;;;;32.17;17.52;;;2.00;99.90;;;;;;4954453;29;20213;-70
2021/12/07 09:55:54;;;;;;;21.42;13.07;;;2.00;99.90;;;;;;4954241;29;20209;-70
2021/12/07 09:58:22;;;;;;;29.98;17.27;;;2.00;99.90;;;;;;4954933;29;20245;-71
2021/12/07 10:00:49;;;;;;;31.13;18.98;;;2.00;99.90;;;;;;4952179;29;20260;-70
2021/12/07 10:03:18;;;;;;;39.25;20.23;;;2.00;99.90;;;;;;4954764;29;20216;-70
2021/12/07 10:05:46;;;;;;;34.40;18.67;;;2.10;99.90;;;;;;4954773;28;20236;-72
2021/12/07 10:08:13;;;;;;;21.83;12.90;;;2.00;99.90;;;;;;4954121;29;20205;-69
2021/12/07 10:10:43;;;;;;;28.80;15.57;;;2.00;99.90;;;;;;4953818;29;20769;-69
2021/12/07 10:13:10;;;;;;;39.28;19.90;;;2.00;99.90;;;;;;4954048;29;20694;-69
2021/12/07 10:15:39;;;;;;;23.92;14.45;;;2.00;99.90;;;;;;4951527;29;20659;-69
2021/12/07 10:18:09;;;;;;;34.05;17.02;;;2.00;99.90;;;;;;4954070;29;20251;-70
2021/12/07 10:20:40;;;;;;;16.30;11.57;;;2.00;99.90;;;;;;4953386;29;20235;-68
2021/12/07 10:23:25;;;;;;;40.53;19.92;;;2.00;99.90;;;;;;4953153;28;20260;-68
2021/12/07 10:25:55;;;;;;;30.20;17.90;;;1.90;99.90;;;;;;4954110;29;20197;-70
2021/12/07 10:28:27;;;;;;;34.25;17.50;;;2.00;99.90;;;;;;4954040;29;20205;-70
2021/12/07 10:30:54;;;;;;;17.50;10.02;;;2.00;99.90;;;;;;4937825;29;20617;-70
2021/12/07 10:33:29;;;;;;;18.85;10.45;;;2.00;99.90;;;;;;4934357;29;20220;-70
2021/12/07 10:36:07;;;;;;;24.10;13.55;;;2.00;99.90;;;;;;4934870;29;20304;-70
2021/12/07 10:38:37;;;;;;;23.92;14.80;;;1.90;99.90;;;;;;4934557;29;20320;-69
2021/12/07 10:41:07;;;;;;;28.23;14.95;;;2.00;99.90;;;;;;4948511;29;20268;-70
2021/12/07 10:43:55;;;;;;;29.48;17.00;;;2.00;99.90;;;;;;4952241;29;20212;-71
2021/12/07 10:46:40;;;;;;;21.83;14.23;;;2.00;99.90;;;;;;4953485;29;20358;-70
2021/12/07 10:49:27;;;;;;;24.10;13.50;;;2.00;99.90;;;;;;4953328;29;20220;-70
2021/12/07 10:52:05;;;;;;;23.65;10.60;;;2.00;99.90;;;;;;4953224;28;20437;-70
2021/12/07 10:54:36;;;;;;;26.42;14.63;;;2.00;99.90;;;;;;4953471;29;20668;-70
2021/12/07 10:57:05;;;;;;;28.25;15.93;;;2.00;99.90;;;;;;4955320;29;20244;-70
2021/12/07 10:59:33;;;;;;;21.65;10.77;;;2.00;99.90;;;;;;4952182;29;20205;-70
2021/12/07 11:02:12;;;;;;;24.52;15.98;;;2.00;99.90;;;;;;4953453;29;20240;-69
2021/12/07 11:04:40;;;;;;;18.23;11.43;;;2.00;99.90;;;;;;4953236;29;20295;-69
2021/12/07 11:07:14;;;;;;;15.68;9.93;;;2.00;99.90;;;;;;4953268;29;20208;-70
2021/12/07 11:09:51;;;;;;;31.17;17.88;;;2.10;99.90;;;;;;4952731;29;20596;-70
2021/12/07 11:12:20;;;;;;;35.13;18.27;;;2.10;99.90;;;;;;4952524;29;20233;-69
2021/12/07 11:14:51;;;;;;;31.50;16.98;;;2.10;99.90;;;;;;4933867;29;20229;-68
2021/12/07 11:17:21;;;;;;;20.58;11.77;;;2.20;99.90;;;;;;4934067;29;20560;-69
2021/12/07 11:19:48;;;;;;;27.48;16.23;;;2.10;99.90;;;;;;4946116;29;20212;-69
2021/12/07 11:22:17;;;;;;;27.05;13.20;;;2.10;99.90;;;;;;4952623;29;20232;-70
2021/12/07 11:24:46;;;;;;;32.22;17.67;;;2.20;99.90;;;;;;4953061;29;20205;-69
2021/12/07 11:30:05;;;;;;;16.48;10.93;;;2.20;99.90;;;;;;4952038;29;20301;-70
2021/12/07 11:32:32;;;;;;;17.88;12.55;;;2.20;99.90;;;;;;4952581;28;20225;-69
2021/12/07 11:35:10;;;;;;;25.63;16.75;;;2.20;99.90;;;;;;4951681;29;20232;-70
2021/12/07 11:37:39;;;;;;;23.85;12.73;;;2.20;99.90;;;;;;4952589;29;20247;-70
2021/12/07 11:40:10;;;;;;;22.17;13.70;;;2.30;99.90;;;;;;4952113;29;20209;-70
2021/12/07 11:42:41;;;;;;;33.90;16.70;;;2.20;99.90;;;;;;4951794;29;20225;-70
2021/12/07 11:45:12;;;;;;;30.35;15.85;;;2.20;99.90;;;;;;4951740;29;20201;-70
2021/12/07 11:47:41;;;;;;;32.13;18.30;;;2.20;99.90;;;;;;4952469;29;20227;-70
2021/12/07 11:50:20;;;;;;;24.75;14.60;;;2.20;99.90;;;;;;4950641;29;20229;-69
2021/12/07 11:52:49;;;;;;;20.90;14.57;;;2.20;99.90;;;;;;4945716;29;20947;-69
2021/12/07 11:55:19;;;;;;;22.30;14.05;;;2.20;99.90;;;;;;4952377;29;20213;-70
2021/12/07 11:57:47;;;;;;;22.48;14.85;;;2.20;99.90;;;;;;4951787;28;20237;-70
2021/12/07 12:00:18;;;;;;;29.13;18.02;;;2.20;99.90;;;;;;4951333;29;20240;-69
2021/12/07 12:02:45;;;;;;;30.73;15.57;;;2.20;99.90;;;;;;4952307;29;20217;-70
2021/12/07 12:05:11;;;;;;;30.13;17.08;;;2.30;99.90;;;;;;4952128;29;20217;-69
2021/12/07 12:07:41;;;;;;;30.83;16.08;;;2.30;99.90;;;;;;4951799;29;20216;-70
2021/12/07 12:10:12;;;;;;;27.80;15.38;;;2.30;99.90;;;;;;4936495;29;20202;-70
2021/12/07 12:13:02;;;;;;;28.77;16.52;;;2.30;99.90;;;;;;4944796;29;20209;-70
2021/12/07 12:15:46;;;;;;;28.63;15.15;;;2.30;99.90;;;;;;4951207;29;20209;-68
2021/12/07 12:18:18;;;;;;;25.23;15.35;;;2.40;99.90;;;;;;4952151;29;20315;-69
2021/12/07 12:20:58;;;;;;;31.73;18.50;;;2.40;99.90;;;;;;4951092;29;20224;-69
2021/12/07 12:23:33;;;;;;;25.58;14.05;;;2.40;99.90;;;;;;4945277;29;20202;-69
2021/12/07 12:26:03;;;;;;;31.35;19.63;;;2.40;99.90;;;;;;4937054;29;20567;-70
2021/12/07 12:28:38;;;;;;;29.55;18.23;;;2.50;99.90;;;;;;4934294;29;20213;-70
2021/12/07 12:31:06;;;;;;;30.98;17.80;;;2.50;99.90;;;;;;4951095;29;20556;-70
2021/12/07 12:33:46;;;;;;;32.55;20.42;;;2.60;99.90;;;;;;4936476;29;20210;-70
2021/12/07 12:36:13;;;;;;;26.95;15.40;;;2.60;99.90;;;;;;4934171;29;20212;-70
2021/12/07 12:38:46;;;;;;;17.80;13.20;;;2.60;99.90;;;;;;4951263;29;20283;-70
2021/12/07 12:41:14;;;;;;;28.88;18.10;;;2.60;99.90;;;;;;4951857;29;20229;-71
2021/12/07 12:43:45;;;;;;;37.33;19.20;;;2.50;99.90;;;;;;4950807;29;20245;-70
2021/12/07 12:46:16;;;;;;;34.60;19.95;;;2.60;99.90;;;;;;4955030;28;20233;-70
2021/12/07 12:48:46;;;;;;;31.38;19.98;;;2.60;99.90;;;;;;4944626;29;20214;-71
2021/12/07 12:51:13;;;;;;;31.40;17.08;;;2.70;99.90;;;;;;4955618;29;20229;-70
2021/12/07 12:53:40;;;;;;;38.58;21.52;;;2.70;99.90;;;;;;4943892;29;20210;-69
2021/12/07 12:56:09;;;;;;;19.30;10.85;;;2.70;99.90;;;;;;4955396;29;20205;-70
2021/12/07 12:58:41;;;;;;;23.88;15.15;;;2.70;99.90;;;;;;4936687;29;20590;-70
2021/12/07 13:01:16;;;;;;;27.05;18.67;;;2.60;99.90;;;;;;4934692;29;20608;-70
2021/12/07 13:04:05;;;;;;;22.13;14.13;;;2.60;99.90;;;;;;4935882;29;20213;-70
2021/12/07 13:06:44;;;;;;;26.48;16.88;;;2.60;99.90;;;;;;4938720;29;20269;-70
2021/12/07 13:09:23;;;;;;;36.55;18.60;;;2.70;99.90;;;;;;4938721;29;20264;-71
2021/12/07 13:11:53;;;;;;;13.55;8.30;;;2.70;99.90;;;;;;4953868;29;20237;-71
2021/12/07 13:14:31;;;;;;;21.40;12.38;;;2.80;99.90;;;;;;4953612;29;20279;-69
2021/12/07 13:17:07;;;;;;;31.05;17.55;;;2.80;99.90;;;;;;4945723;28;20217;-70
2021/12/07 13:20:01;;;;;;;38.25;19.77;;;2.70;99.90;;;;;;4945324;29;20229;-71
2021/12/07 13:22:35;;;;;;;34.55;20.80;;;2.70;99.90;;;;;;4950609;29;20248;-69
2021/12/07 13:25:07;;;;;;;30.77;17.80;;;2.80;99.90;;;;;;4942552;29;20254;-70
2021/12/07 13:27:34;;;;;;;27.55;16.42;;;2.80;99.90;;;;;;4939428;29;20575;-70
2021/12/07 13:30:00;;;;;;;20.33;12.50;;;2.80;99.90;;;;;;4951965;29;20215;-69
2021/12/07 13:32:28;;;;;;;21.73;13.70;;;2.70;99.90;;;;;;4953691;29;20233;-69
2021/12/07 13:35:02;;;;;;;33.83;18.23;;;2.60;99.90;;;;;;4944775;28;20353;-69
2021/12/07 13:37:44;;;;;;;34.65;19.33;;;2.60;99.90;;;;;;4937652;29;20209;-69
2021/12/07 13:40:19;;;;;;;27.83;16.08;;;2.60;99.90;;;;;;4948804;29;20202;-69
2021/12/07 13:42:50;;;;;;;33.10;17.73;;;2.60;99.90;;;;;;4953676;29;20302;-69
2021/12/07 13:45:20;;;;;;;23.45;13.40;;;2.60;99.90;;;;;;4952642;29;20710;-70
2021/12/07 13:47:50;;;;;;;30.48;14.18;;;2.50;99.90;;;;;;4952992;29;20235;-70
2021/12/07 13:50:21;;;;;;;18.20;11.80;;;2.50;99.90;;;;;;4952431;29;20201;-70
2021/12/07 13:52:50;;;;;;;35.22;20.17;;;2.50;99.90;;;;;;4952140;29;20213;-71
2021/12/07 13:55:20;;;;;;;37.63;22.20;;;2.50;99.90;;;;;;4952742;29;20324;-70
2021/12/07 13:57:49;;;;;;;27.10;14.23;;;2.50;99.90;;;;;;4937638;28;20214;-70
2021/12/07 14:00:19;;;;;;;32.72;18.55;;;2.60;99.90;;;;;;4932949;29;20580;-69
2021/12/07 14:02:51;;;;;;;26.92;17.55;;;2.50;99.90;;;;;;4947069;29;20216;-70
2021/12/07 14:05:20;;;;;;;25.63;16.75;;;2.50;99.90;;;;;;4952265;28;20299;-70
2021/12/07 14:07:49;;;;;;;24.40;11.73;;;2.50;99.90;;;;;;4951782;29;20242;-70
2021/12/07 14:10:19;;;;;;;28.25;18.10;;;2.40;99.90;;;;;;4946640;29;20584;-70
2021/12/07 14:12:49;;;;;;;34.22;18.52;;;2.40;99.90;;;;;;4953168;29;20595;-70
2021/12/07 14:15:19;;;;;;;34.78;18.08;;;2.40;99.90;;;;;;4950727;29;20328;-70
2021/12/07 14:17:48;;;;;;;22.67;10.68;;;2.40;99.90;;;;;;4952787;29;20213;-70
2021/12/07 14:20:28;;;;;;;34.83;18.10;;;2.40;99.90;;;;;;4949750;28;20209;-69
2021/12/07 14:22:55;;;;;;;19.83;12.57;;;2.50;99.90;;;;;;4952401;29;20229;-69
2021/12/07 14:25:21;;;;;;;27.75;16.02;;;2.40;99.90;;;;;;4952414;29;20209;-69
2021/12/07 14:27:49;;;;;;;24.38;14.75;;;2.40;99.90;;;;;;4942369;29;20202;-69
2021/12/07 14:30:17;;;;;;;32.60;17.80;;;2.40;99.90;;;;;;4943351;29;20201;-70
2021/12/07 14:32:46;;;;;;;25.83;16.15;;;2.40;99.90;;;;;;4936676;29;20301;-68
2021/12/07 14:35:13;;;;;;;32.03;19.38;;;2.30;99.90;;;;;;4952111;29;20209;-69
2021/12/07 14:37:41;;;;;;;36.58;18.33;;;2.30;99.90;;;;;;4953027;29;20213;-70
2021/12/07 14:40:09;;;;;;;25.60;14.32;;;2.30;99.90;;;;;;4944949;29;20556;-70
2021/12/07 14:42:36;;;;;;;20.73;13.38;;;2.20;99.90;;;;;;4951138;29;20665;-69
2021/12/07 14:45:03;;;;;;;34.47;18.05;;;2.20;99.90;;;;;;4951552;29;20210;-69
2021/12/07 14:47:30;;;;;;;27.55;16.67;;;2.10;99.90;;;;;;4952167;29;20220;-70
2021/12/07 14:50:00;;;;;;;31.80;18.35;;;2.10;99.90;;;;;;4952625;29;20205;-69
2021/12/07 14:52:29;;;;;;;38.60;21.45;;;2.10;99.90;;;;;;4936381;29;20314;-70
2021/12/07 14:54:58;;;;;;;35.42;19.52;;;2.10;99.90;;;;;;4934356;29;20627;-69
2021/12/07 14:57:25;;;;;;;35.08;20.25;;;2.10;99.90;;;;;;4937546;29;20228;-70
2021/12/07 14:59:57;;;;;;;37.30;17.90;;;2.10;99.90;;;;;;4943800;29;20729;-70
2021/12/07 15:02:25;;;;;;;38.25;20.92;;;2.10;99.90;;;;;;4932697;29;20345;-70
2021/12/07 15:04:56;;;;;;;49.60;21.80;;;2.10;99.90;;;;;;4950260;29;20296;-71
2021/12/07 15:07:30;;;;;;;32.72;17.55;;;2.10;99.90;;;;;;4951407;28;20209;-70
2021/12/07 15:10:00;;;;;;;31.98;13.40;;;2.10;99.90;;;;;;4951569;29;20205;-70
2021/12/07 15:12:29;;;;;;;38.10;20.20;;;2.10;99.90;;;;;;4933686;29;20243;-71
2021/12/07 15:15:00;;;;;;;38.35;19.35;;;2.10;99.90;;;;;;4937356;29;20213;-69
2021/12/07 15:17:28;;;;;;;39.95;22.15;;;2.10;99.90;;;;;;4941544;29;20213;-70
2021/12/07 15:19:59;;;;;;;39.08;21.05;;;2.00;99.90;;;;;;4947617;29;20601;-70
2021/12/07 15:22:25;;;;;;;34.58;18.65;;;2.10;99.90;;;;;;4933484;29;20226;-70
2021/12/07 15:24:53;;;;;;;17.35;12.07;;;2.10;99.90;;;;;;4932809;29;20750;-69
2021/12/07 15:27:22;;;;;;;30.73;16.83;;;2.10;99.90;;;;;;4941599;29;20213;-69
2021/12/07 15:29:52;;;;;;;16.92;12.77;;;2.00;99.90;;;;;;4945249;28;20272;-69
2021/12/07 15:32:19;;;;;;;34.38;15.15;;;2.00;99.90;;;;;;4947515;29;20229;-70
2021/12/07 15:34:47;;;;;;;30.77;18.38;;;2.00;99.90;;;;;;4942603;29;20212;-69
2021/12/07 15:37:16;;;;;;;24.15;15.38;;;2.00;99.90;;;;;;4951386;29;20219;-68
2021/12/07 15:39:45;;;;;;;22.85;12.90;;;1.90;99.90;;;;;;4950348;29;20264;-70
2021/12/07 15:42:15;;;;;;;31.23;17.27;;;1.90;99.90;;;;;;4947004;29;20613;-69
2021/12/07 15:44:46;;;;;;;34.35;18.50;;;2.00;99.90;;;;;;4945521;29;20209;-69
2021/12/07 15:47:16;;;;;;;28.08;16.80;;;1.90;99.90;;;;;;4946328;29;20304;-70
2021/12/07 15:49:49;;;;;;;24.98;13.95;;;1.90;99.90;;;;;;4940689;29;20209;-70
2021/12/07 15:52:18;;;;;;;28.42;15.75;;;1.90;99.90;;;;;;4941074;29;20236;-69
2021/12/07 15:54:57;;;;;;;27.48;17.77;;;1.90;99.90;;;;;;4945181;28;20639;-70
2021/12/07 15:57:24;;;;;;;31.55;17.60;;;1.90;99.90;;;;;;4953011;29;20212;-68
2021/12/07 16:00:02;;;;;;;31.38;16.27;;;1.90;99.90;;;;;;4950572;28;20260;-69
2021/12/07 16:02:29;;;;;;;37.50;20.15;;;1.90;99.90;;;;;;4948658;28;20284;-69
2021/12/07 16:05:07;;;;;;;31.35;17.40;;;1.90;99.90;;;;;;4947393;29;20318;-69
2021/12/07 16:07:42;;;;;;;32.13;17.35;;;1.90;99.90;;;;;;4941498;29;20232;-69
2021/12/07 16:10:12;;;;;;;14.50;10.85;;;2.00;99.90;;;;;;4948362;29;20259;-70
2021/12/07 16:12:39;;;;;;;35.67;18.15;;;1.90;99.90;;;;;;4931952;29;20217;-69
2021/12/07 16:15:10;;;;;;;22.50;14.07;;;2.00;99.90;;;;;;4930843;29;20704;-69
2021/12/07 16:17:37;;;;;;;27.23;18.50;;;2.00;99.90;;;;;;4938134;29;20201;-69
2021/12/07 16:20:06;;;;;;;23.58;14.38;;;2.00;99.90;;;;;;4947059;28;20228;-69
2021/12/07 16:22:33;;;;;;;29.90;16.08;;;2.00;99.90;;;;;;4951810;28;20229;-70
2021/12/07 16:25:00;;;;;;;35.13;19.45;;;2.00;99.90;;;;;;4952674;29;20212;-69
2021/12/07 16:27:27;;;;;;;30.17;17.65;;;2.00;99.90;;;;;;4945002;29;20303;-69
2021/12/07 16:29:53;;;;;;;21.02;15.95;;;2.00;99.90;;;;;;4935707;29;20521;-68
2021/12/07 16:32:21;;;;;;;45.13;19.00;;;2.00;99.90;;;;;;4949121;29;20222;-68
2021/12/07 16:34:48;;;;;;;32.78;18.05;;;2.00;99.90;;;;;;4948230;29;20225;-69
2021/12/07 16:37:15;;;;;;;19.30;11.68;;;2.00;99.90;;;;;;4948449;29;20212;-69
2021/12/07 16:39:42;;;;;;;35.00;18.42;;;2.00;99.90;;;;;;4942870;29;20587;-69
2021/12/07 16:42:09;;;;;;;30.85;17.50;;;2.00;99.90;;;;;;4952744;29;20224;-69
2021/12/07 16:44:37;;;;;;;16.77;10.73;;;2.00;99.90;;;;;;4953952;29;20581;-69
2021/12/07 16:47:04;;;;;;;34.80;17.33;;;2.00;99.90;;;;;;4948845;29;20209;-70
2021/12/07 16:49:33;;;;;;;34.72;19.95;;;2.00;99.90;;;;;;4954564;29;20208;-71
2021/12/07 16:51:59;;;;;;;29.42;16.20;;;2.00;99.90;;;;;;4950489;29;20651;-70
2021/12/07 16:54:26;;;;;;;14.63;9.90;;;2.00;99.90;;;;;;4949618;29;20644;-69
2021/12/07 16:56:53;;;;;;;37.85;21.02;;;2.00;99.90;;;;;;4946838;28;20224;-69
2021/12/07 16:59:20;;;;;;;30.05;15.25;;;2.10;99.90;;;;;;4951870;29;20749;-69
2021/12/07 17:01:46;;;;;;;38.72;20.75;;;2.10;99.90;;;;;;4948240;29;20233;-70
2021/12/07 17:04:14;;;;;;;37.90;20.42;;;2.10;99.90;;;;;;4945339;29;20582;-70
2021/12/07 17:06:42;;;;;;;22.13;13.82;;;2.10;99.90;;;;;;4935990;28;20675;-69
2021/12/07 17:09:10;;;;;;;25.73;17.08;;;2.10;99.90;;;;;;4947421;29;20213;-69
2021/12/07 17:11:38;;;;;;;16.00;10.55;;;2.10;99.90;;;;;;4937217;29;20233;-68
2021/12/07 17:14:05;;;;;;;19.05;11.10;;;2.10;99.90;;;;;;4948854;29;20209;-69
2021/12/07 17:16:32;;;;;;;36.58;17.42;;;2.10;99.90;;;;;;4948701;29;20225;-70
2021/12/07 17:18:59;;;;;;;32.65;16.80;;;2.20;99.90;;;;;;4949932;29;20272;-69
2021/12/07 17:21:26;;;;;;;31.05;17.42;;;2.20;99.90;;;;;;4947059;29;20230;-70
2021/12/07 17:23:54;;;;;;;34.60;19.15;;;2.20;99.90;;;;;;4954824;29;20213;-68
2021/12/07 17:26:21;;;;;;;24.60;14.45;;;2.20;99.90;;;;;;4938533;28;20213;-71
2021/12/07 17:28:49;;;;;;;23.65;12.60;;;2.20;99.90;;;;;;4947691;29;20220;-68
2021/12/07 17:31:15;;;;;;;20.83;11.55;;;2.20;99.90;;;;;;4940796;28;20718;-70
2021/12/07 17:33:43;;;;;;;25.67;15.55;;;2.20;99.90;;;;;;4946226;29;20209;-71
2021/12/07 17:36:11;;;;;;;19.92;12.10;;;2.20;99.90;;;;;;4944738;29;20305;-70
2021/12/07 17:38:38;;;;;;;27.10;14.48;;;2.20;99.90;;;;;;4951258;29;20217;-69
2021/12/07 17:41:07;;;;;;;31.65;18.48;;;2.20;99.90;;;;;;4953031;29;20236;-68
2021/12/07 17:43:34;;;;;;;29.88;15.88;;;2.20;99.90;;;;;;4944056;28;20217;-69
2021/12/07 17:46:01;;;;;;;30.95;17.90;;;2.20;99.90;;;;;;4954657;29;20220;-70
2021/12/07 17:48:28;;;;;;;34.55;18.20;;;2.20;99.90;;;;;;4940770;29;20232;-68
2021/12/07 17:50:55;;;;;;;30.55;18.55;;;2.20;99.90;;;;;;4951187;28;20231;-68
2021/12/07 17:53:22;;;;;;;29.00;15.35;;;2.20;99.90;;;;;;4950951;29;20228;-68
2021/12/07 17:55:51;;;;;;;32.90;18.45;;;2.30;99.90;;;;;;4949172;28;20202;-71
2021/12/07 17:58:20;;;;;;;28.58;13.32;;;2.20;99.90;;;;;;4943418;29;20221;-68
2021/12/07 18:00:49;;;;;;;22.45;13.90;;;2.20;99.90;;;;;;4935222;29;20603;-68
2021/12/07 18:03:18;;;;;;;35.47;21.45;;;2.20;99.90;;;;;;4952536;29;20221;-67
2021/12/07 18:05:46;;;;;;;31.27;18.00;;;2.20;99.90;;;;;;4942088;29;20206;-68
2021/12/07 18:08:13;;;;;;;26.48;12.70;;;2.30;99.90;;;;;;4945978;29;20654;-67
2021/12/07 18:10:40;;;;;;;30.85;17.00;;;2.30;99.90;;;;;;4941207;29;20225;-68
2021/12/07 18:13:07;;;;;;;15.57;8.60;;;2.30;99.90;;;;;;4950740;29;20209;-68
2021/12/07 18:15:36;;;;;;;25.85;14.02;;;2.30;99.90;;;;;;4938204;29;20288;-67
2021/12/07 18:18:04;;;;;;;14.70;11.10;;;2.30;99.90;;;;;;4943240;29;20666;-68